Time;durP1;ratioP1;P1;durP2;ratioP2;P2;SDS_P1;SDS_P2;PMS_P1;PMS_P2;Temp;Humidity;BMP_temperature;BMP_pressure;BME280_temperature;BME280_humidity;BME280_pressure;Samples;Min_cycle;Max_cycle;Signal;HPM_P1;HPM_P2
2022/11/24 00:01:14;;;;;;;6.15;1.50;;;6.50;99.90;;;;;;5031352;28;20079;-73
2022/11/24 00:03:40;;;;;;;13.57;2.33;;;6.50;99.90;;;;;;5029747;28;20030;-74
2022/11/24 00:06:30;;;;;;;9.20;1.92;;;6.50;99.90;;;;;;5024783;28;20688;-74
2022/11/24 00:08:56;;;;;;;7.18;2.80;;;6.50;99.90;;;;;;5036078;28;20083;-73
2022/11/24 00:11:30;;;;;;;8.20;2.45;;;6.50;99.90;;;;;;5026509;28;20101;-73
2022/11/24 00:13:57;;;;;;;4.95;2.58;;;6.50;99.90;;;;;;5030667;28;20041;-74
2022/11/24 00:16:34;;;;;;;7.68;2.50;;;6.50;99.90;;;;;;5035438;28;20021;-73
2022/11/24 00:19:07;;;;;;;5.93;2.15;;;6.40;99.90;;;;;;5033343;28;20051;-74
2022/11/24 00:21:35;;;;;;;8.80;2.37;;;6.40;99.90;;;;;;5035108;28;20028;-73
2022/11/24 00:24:01;;;;;;;10.07;2.40;;;6.40;99.90;;;;;;5038129;28;20391;-73
2022/11/24 00:26:33;;;;;;;9.13;2.25;;;6.40;99.90;;;;;;5036075;28;20029;-73
2022/11/24 00:29:05;;;;;;;6.40;2.17;;;6.30;99.90;;;;;;5030655;28;20112;-73
2022/11/24 00:31:36;;;;;;;7.13;2.08;;;6.30;99.90;;;;;;5032524;28;20040;-72
2022/11/24 00:34:13;;;;;;;9.93;2.25;;;6.20;99.90;;;;;;5038398;28;20033;-73
2022/11/24 00:36:39;;;;;;;9.30;2.42;;;6.20;99.90;;;;;;5033063;28;20033;-72
2022/11/24 00:39:07;;;;;;;8.05;2.45;;;6.20;99.90;;;;;;5032346;28;20470;-73
2022/11/24 00:41:33;;;;;;;13.38;1.80;;;6.20;99.90;;;;;;5031136;28;20053;-73
2022/11/24 00:44:02;;;;;;;11.13;2.53;;;6.20;99.90;;;;;;5035574;28;20068;-73
2022/11/24 00:46:34;;;;;;;8.10;2.17;;;6.20;99.90;;;;;;5030586;28;20040;-73
2022/11/24 00:49:03;;;;;;;5.82;2.00;;;6.20;99.90;;;;;;5034536;28;20433;-73
2022/11/24 00:51:29;;;;;;;9.63;2.42;;;6.10;99.90;;;;;;5033993;28;20029;-72
2022/11/24 00:54:01;;;;;;;7.40;2.60;;;6.10;99.90;;;;;;5025896;28;20455;-73
2022/11/24 00:56:30;;;;;;;10.63;2.33;;;6.00;99.90;;;;;;5028918;28;20380;-74
2022/11/24 00:58:58;;;;;;;8.30;1.70;;;6.00;99.90;;;;;;5039084;28;20091;-74
2022/11/24 01:01:27;;;;;;;9.65;1.65;;;6.00;99.90;;;;;;5033049;28;20033;-74
2022/11/24 01:03:56;;;;;;;8.13;1.83;;;6.00;99.90;;;;;;5036785;28;20116;-75
2022/11/24 01:06:24;;;;;;;6.28;1.17;;;5.90;99.90;;;;;;5033493;28;20021;-74
2022/11/24 01:08:50;;;;;;;4.55;1.42;;;5.90;99.90;;;;;;5030508;28;20031;-74
2022/11/24 01:14:21;;;;;;;7.18;1.70;;;5.90;99.90;;;;;;5033780;28;20056;-71
2022/11/24 01:16:47;;;;;;;5.13;1.40;;;5.90;99.90;;;;;;5030477;28;20036;-73
2022/11/24 01:19:15;;;;;;;6.30;1.63;;;5.90;99.90;;;;;;5034865;28;20112;-72
2022/11/24 01:21:44;;;;;;;8.05;1.55;;;5.90;99.90;;;;;;5035545;28;20036;-73
2022/11/24 01:24:10;;;;;;;3.85;0.93;;;5.90;99.90;;;;;;5034614;28;20041;-73
2022/11/24 01:26:35;;;;;;;5.40;1.15;;;5.90;99.90;;;;;;5035850;28;20033;-72
2022/11/24 01:29:01;;;;;;;5.47;1.05;;;5.90;99.90;;;;;;5027036;28;20403;-72
2022/11/24 01:31:27;;;;;;;2.50;0.80;;;5.90;99.90;;;;;;5033378;28;20023;-72
2022/11/24 01:33:53;;;;;;;8.57;1.40;;;5.90;99.90;;;;;;5030998;28;20029;-72
2022/11/24 01:36:19;;;;;;;5.70;0.70;;;5.90;99.90;;;;;;5031442;28;20482;-73
2022/11/24 01:38:53;;;;;;;1.85;0.70;;;6.00;99.90;;;;;;5027755;28;20056;-73
2022/11/24 01:41:22;;;;;;;6.97;1.38;;;5.90;99.90;;;;;;5031295;28;20116;-73
2022/11/24 01:43:49;;;;;;;5.97;1.00;;;6.00;99.90;;;;;;5030579;28;20025;-73
2022/11/24 01:46:20;;;;;;;2.63;0.63;;;6.00;99.90;;;;;;5031802;28;20040;-72
2022/11/24 01:48:56;;;;;;;6.85;1.33;;;6.00;99.90;;;;;;5031213;28;20399;-74
2022/11/24 01:51:33;;;;;;;4.13;0.80;;;6.10;99.90;;;;;;5033092;28;20033;-73
2022/11/24 01:54:25;;;;;;;1.95;0.60;;;6.10;99.90;;;;;;5032923;28;20023;-73
2022/11/24 01:57:04;;;;;;;4.18;0.88;;;6.10;99.90;;;;;;5033143;28;20013;-72
2022/11/24 01:59:30;;;;;;;5.20;0.90;;;6.10;99.90;;;;;;5033432;28;20022;-73
2022/11/24 02:02:02;;;;;;;3.97;0.75;;;6.20;99.90;;;;;;5023868;28;20037;-73
2022/11/24 02:04:41;;;;;;;4.30;1.27;;;6.20;99.90;;;;;;5034798;28;20405;-72
2022/11/24 02:07:07;;;;;;;4.82;1.02;;;6.20;99.90;;;;;;5020972;28;20029;-73
2022/11/24 02:09:49;;;;;;;3.55;0.57;;;6.20;99.90;;;;;;5035228;28;20033;-72
2022/11/24 02:12:14;;;;;;;4.70;1.30;;;6.20;99.90;;;;;;5028375;28;20041;-72
2022/11/24 02:14:42;;;;;;;6.95;0.95;;;6.30;99.90;;;;;;5021752;28;20030;-73
2022/11/24 02:17:09;;;;;;;7.35;1.02;;;6.30;99.90;;;;;;5031050;28;20379;-73
2022/11/24 02:19:40;;;;;;;3.53;0.70;;;6.40;99.90;;;;;;5029594;28;20028;-73
2022/11/24 02:22:33;;;;;;;5.60;0.98;;;6.40;99.90;;;;;;5027542;28;20029;-72
2022/11/24 02:24:58;;;;;;;5.32;0.85;;;6.40;99.90;;;;;;5019069;28;20051;-74
2022/11/24 02:27:30;;;;;;;4.50;0.93;;;6.40;99.90;;;;;;5030070;28;20036;-71
2022/11/24 02:29:56;;;;;;;5.32;0.77;;;6.40;99.90;;;;;;5025769;28;20017;-73
2022/11/24 02:32:22;;;;;;;5.10;1.08;;;6.40;99.90;;;;;;5013348;28;20371;-73
2022/11/24 02:35:01;;;;;;;5.03;0.80;;;6.50;99.90;;;;;;5023496;28;20046;-73
2022/11/24 02:37:30;;;;;;;5.40;1.23;;;6.40;99.90;;;;;;5024951;28;20489;-73
2022/11/24 02:39:59;;;;;;;5.28;1.02;;;6.40;99.90;;;;;;5025823;28;20026;-73
2022/11/24 02:42:27;;;;;;;3.67;0.90;;;6.40;99.90;;;;;;5025191;28;20498;-73
2022/11/24 02:44:57;;;;;;;5.43;0.85;;;6.40;99.90;;;;;;5025895;28;20050;-73
2022/11/24 02:47:26;;;;;;;2.35;1.05;;;6.40;99.90;;;;;;5022242;28;20423;-73
2022/11/24 02:49:55;;;;;;;3.28;0.88;;;6.30;99.90;;;;;;5023388;28;20026;-73
2022/11/24 02:52:24;;;;;;;5.00;1.00;;;6.30;99.90;;;;;;5023916;28;20026;-73
2022/11/24 02:54:58;;;;;;;3.25;0.90;;;6.30;99.90;;;;;;5026427;28;20029;-73
2022/11/24 02:57:24;;;;;;;4.63;1.20;;;6.20;99.90;;;;;;5024374;28;20018;-73
2022/11/24 02:59:56;;;;;;;4.32;1.20;;;6.20;99.90;;;;;;5023278;28;20022;-73
2022/11/24 03:02:31;;;;;;;5.03;1.30;;;6.20;99.90;;;;;;5025184;28;20021;-73
2022/11/24 03:04:56;;;;;;;2.78;1.10;;;6.20;99.90;;;;;;5027835;28;20037;-73
2022/11/24 03:07:25;;;;;;;6.55;1.42;;;6.10;99.90;;;;;;5018280;28;20398;-73
2022/11/24 03:09:51;;;;;;;6.18;1.50;;;6.10;99.90;;;;;;5026965;28;20490;-73
2022/11/24 03:12:16;;;;;;;6.55;1.15;;;6.00;99.90;;;;;;5024712;28;20061;-73
2022/11/24 03:14:45;;;;;;;4.90;0.98;;;6.00;99.90;;;;;;5024997;28;20029;-73
2022/11/24 03:17:10;;;;;;;4.47;1.30;;;6.00;99.90;;;;;;5018027;28;20026;-74
2022/11/24 03:19:42;;;;;;;4.78;0.90;;;6.00;99.90;;;;;;5024361;28;20025;-73
2022/11/24 03:22:08;;;;;;;5.82;1.20;;;6.00;99.90;;;;;;5025742;28;20514;-73
2022/11/24 03:24:33;;;;;;;5.60;1.15;;;5.90;99.90;;;;;;5021345;28;20057;-74
2022/11/24 03:26:59;;;;;;;6.35;1.23;;;5.90;99.90;;;;;;5020075;28;20084;-74
2022/11/24 03:29:25;;;;;;;5.45;1.35;;;5.90;99.90;;;;;;5022965;28;20053;-73
2022/11/24 03:31:57;;;;;;;5.10;1.35;;;5.90;99.90;;;;;;5020802;28;20466;-74
2022/11/24 03:34:26;;;;;;;4.53;1.17;;;5.90;99.90;;;;;;5021069;28;20040;-73
2022/11/24 03:36:54;;;;;;;4.55;1.02;;;5.90;99.90;;;;;;5026044;28;20067;-73
2022/11/24 03:39:20;;;;;;;10.48;1.42;;;5.90;99.90;;;;;;5018400;28;20029;-73
2022/11/24 03:41:46;;;;;;;8.88;1.60;;;5.90;99.90;;;;;;5028804;28;20026;-73
2022/11/24 03:44:11;;;;;;;10.35;1.55;;;5.90;99.90;;;;;;5022392;28;20501;-73
2022/11/24 03:46:40;;;;;;;4.13;1.00;;;5.80;99.90;;;;;;5025248;28;20486;-73
2022/11/24 03:49:08;;;;;;;7.20;1.02;;;5.80;99.90;;;;;;5022447;28;20045;-73
2022/11/24 03:51:40;;;;;;;6.78;1.17;;;5.80;99.90;;;;;;5025058;28;20022;-73
2022/11/24 03:54:06;;;;;;;8.60;1.40;;;5.80;99.90;;;;;;5021103;28;20029;-73
2022/11/24 03:56:31;;;;;;;9.10;2.08;;;5.70;99.90;;;;;;5025636;28;20139;-73
2022/11/24 03:59:00;;;;;;;6.85;1.88;;;5.70;99.90;;;;;;5025768;28;20024;-73
2022/11/24 04:01:31;;;;;;;5.70;1.20;;;5.70;99.90;;;;;;5017488;28;20108;-73
2022/11/24 04:03:57;;;;;;;6.03;1.77;;;5.60;99.90;;;;;;5020051;28;20037;-73
2022/11/24 04:06:23;;;;;;;9.80;2.00;;;5.60;99.90;;;;;;5017618;28;20497;-73
2022/11/24 04:08:51;;;;;;;5.50;1.58;;;5.50;99.90;;;;;;5027268;28;20022;-73
2022/11/24 04:14:04;;;;;;;7.35;1.45;;;5.50;99.90;;;;;;5026248;28;20060;-73
2022/11/24 04:16:33;;;;;;;6.63;1.52;;;5.40;99.90;;;;;;5023010;28;20053;-73
2022/11/24 04:18:58;;;;;;;5.85;1.38;;;5.40;99.90;;;;;;5018047;28;20030;-73
2022/11/24 04:21:24;;;;;;;7.90;1.88;;;5.40;99.90;;;;;;5023575;28;20476;-73
2022/11/24 04:23:50;;;;;;;6.18;1.75;;;5.30;99.90;;;;;;5025553;28;20054;-72
2022/11/24 04:26:22;;;;;;;7.30;1.35;;;5.30;99.90;;;;;;5021466;28;20088;-73
2022/11/24 04:28:50;;;;;;;8.10;1.50;;;5.30;99.90;;;;;;5019805;28;20033;-73
2022/11/24 04:31:17;;;;;;;5.53;1.50;;;5.20;99.90;;;;;;5017944;28;20036;-73
2022/11/24 04:33:42;;;;;;;6.95;1.50;;;5.30;99.90;;;;;;5016653;28;20112;-73
2022/11/24 04:36:11;;;;;;;10.43;1.70;;;5.20;99.90;;;;;;5022979;28;20527;-73
2022/11/24 04:38:39;;;;;;;6.05;1.40;;;5.20;99.90;;;;;;5023567;28;20030;-73
2022/11/24 04:41:05;;;;;;;7.65;1.40;;;5.20;99.90;;;;;;5022184;28;20080;-73
2022/11/24 04:43:33;;;;;;;12.57;2.03;;;5.20;99.90;;;;;;5023178;28;20078;-73
2022/11/24 04:46:05;;;;;;;11.23;1.50;;;5.30;99.90;;;;;;5025415;28;20134;-74
2022/11/24 04:48:30;;;;;;;9.70;1.95;;;5.30;99.90;;;;;;5028098;28;20030;-74
2022/11/24 04:51:04;;;;;;;8.15;1.70;;;5.40;99.90;;;;;;5023734;28;20036;-73
2022/11/24 04:53:30;;;;;;;6.38;1.25;;;5.50;99.90;;;;;;5024923;28;20056;-74
2022/11/24 04:55:55;;;;;;;7.38;1.60;;;5.50;99.90;;;;;;5023960;28;20030;-73
2022/11/24 04:58:24;;;;;;;9.18;2.20;;;5.60;99.90;;;;;;5029006;28;20030;-74
2022/11/24 05:00:49;;;;;;;11.02;2.70;;;5.60;99.90;;;;;;5026673;28;20025;-74
2022/11/24 05:03:18;;;;;;;17.38;2.10;;;5.60;99.90;;;;;;5027933;28;20060;-73
2022/11/24 05:05:43;;;;;;;11.38;1.98;;;5.70;99.90;;;;;;5027516;28;20048;-74
2022/11/24 05:08:12;;;;;;;10.02;2.33;;;5.80;99.90;;;;;;5025928;28;20033;-74
2022/11/24 05:10:38;;;;;;;9.25;2.17;;;5.80;99.90;;;;;;5032464;28;20435;-74
2022/11/24 05:13:12;;;;;;;8.00;1.80;;;5.80;99.90;;;;;;5027631;28;20041;-74
2022/11/24 05:15:43;;;;;;;13.38;2.72;;;5.80;99.90;;;;;;5027301;28;20053;-74
2022/11/24 05:18:18;;;;;;;5.90;1.25;;;5.80;99.90;;;;;;5029347;28;20556;-74
2022/11/24 05:20:48;;;;;;;13.20;2.03;;;5.90;99.90;;;;;;5029333;28;20028;-74
2022/11/24 05:23:17;;;;;;;13.77;2.75;;;5.90;99.90;;;;;;5025636;28;20026;-74
2022/11/24 05:25:43;;;;;;;10.10;2.65;;;5.90;99.90;;;;;;5025216;28;20052;-74
2022/11/24 05:28:09;;;;;;;14.02;2.25;;;5.80;99.90;;;;;;5028882;28;20021;-74
2022/11/24 05:30:38;;;;;;;17.27;2.20;;;5.80;99.90;;;;;;5027021;28;20049;-75
2022/11/24 05:33:10;;;;;;;10.55;1.85;;;5.80;99.90;;;;;;5023148;28;20034;-76
2022/11/24 05:35:36;;;;;;;13.05;2.95;;;5.80;99.90;;;;;;5023617;28;20037;-76
2022/11/24 05:38:03;;;;;;;13.07;2.85;;;5.80;99.90;;;;;;5027782;28;20097;-76
2022/11/24 05:40:29;;;;;;;10.38;3.05;;;5.70;99.90;;;;;;5020754;28;20076;-76
2022/11/24 05:42:55;;;;;;;16.50;3.22;;;5.70;99.90;;;;;;5017155;28;20108;-76
2022/11/24 05:45:27;;;;;;;13.20;3.30;;;5.70;99.90;;;;;;5024397;28;20413;-76
2022/11/24 05:48:10;;;;;;;9.85;2.70;;;5.60;99.90;;;;;;5024655;28;20026;-76
2022/11/24 05:50:39;;;;;;;10.52;2.38;;;5.60;99.90;;;;;;5027491;28;20057;-76
2022/11/24 05:53:10;;;;;;;14.60;2.60;;;5.60;99.90;;;;;;5021783;28;20033;-75
2022/11/24 05:55:39;;;;;;;9.55;2.55;;;5.50;99.90;;;;;;5028006;28;20403;-76
2022/11/24 05:58:07;;;;;;;8.85;2.28;;;5.50;99.90;;;;;;5019591;28;20505;-76
2022/11/24 06:00:34;;;;;;;12.77;2.70;;;5.50;99.90;;;;;;5019361;28;20053;-76
2022/11/24 06:03:00;;;;;;;13.32;3.67;;;5.50;99.90;;;;;;5022155;28;20045;-76
2022/11/24 06:05:27;;;;;;;11.13;3.33;;;5.50;99.90;;;;;;5024694;28;20522;-74
2022/11/24 06:07:53;;;;;;;14.98;3.30;;;5.40;99.90;;;;;;5026810;28;20033;-75
2022/11/24 06:10:25;;;;;;;11.05;2.95;;;5.40;99.90;;;;;;5023245;28;20079;-71
2022/11/24 06:12:51;;;;;;;9.15;2.60;;;5.40;99.90;;;;;;5023625;28;20053;-72
2022/11/24 06:15:23;;;;;;;12.45;2.40;;;5.40;99.90;;;;;;5019373;28;20509;-72
2022/11/24 06:17:55;;;;;;;13.00;2.75;;;5.50;99.90;;;;;;5018201;28;20136;-72
2022/11/24 06:20:22;;;;;;;10.35;2.85;;;5.50;99.90;;;;;;5028361;28;20025;-72
2022/11/24 06:22:47;;;;;;;12.55;2.72;;;5.50;99.90;;;;;;5025386;28;20030;-76
2022/11/24 06:25:17;;;;;;;7.93;2.65;;;5.50;99.90;;;;;;5032378;28;20415;-75
2022/11/24 06:27:43;;;;;;;10.80;2.78;;;5.60;99.90;;;;;;5023103;28;20100;-75
2022/11/24 06:30:15;;;;;;;8.65;3.05;;;5.60;99.90;;;;;;5030387;28;20490;-75
2022/11/24 06:32:43;;;;;;;21.55;3.95;;;5.60;99.90;;;;;;5026566;28;20112;-76
2022/11/24 06:35:18;;;;;;;13.63;3.22;;;5.60;99.90;;;;;;5031893;28;20032;-76
2022/11/24 06:37:44;;;;;;;13.10;3.10;;;5.60;99.90;;;;;;5026987;28;20025;-75
2022/11/24 06:40:13;;;;;;;10.48;2.70;;;5.60;99.90;;;;;;5030606;28;20025;-76
2022/11/24 06:42:39;;;;;;;14.57;3.03;;;5.70;99.90;;;;;;5025854;28;20024;-76
2022/11/24 06:45:05;;;;;;;9.65;2.30;;;5.70;99.90;;;;;;5028299;28;20033;-76
2022/11/24 06:47:34;;;;;;;11.30;2.17;;;5.70;99.90;;;;;;5029458;28;20117;-76
2022/11/24 06:50:00;;;;;;;8.05;1.73;;;5.70;99.90;;;;;;5028876;28;20048;-76
2022/11/24 06:52:31;;;;;;;10.68;2.17;;;5.80;99.90;;;;;;5029456;28;20069;-75
2022/11/24 06:55:00;;;;;;;11.75;1.75;;;5.80;99.90;;;;;;5028526;28;20034;-76
2022/11/24 06:57:28;;;;;;;7.53;1.55;;;5.80;99.90;;;;;;5030003;28;20553;-75
2022/11/24 06:59:57;;;;;;;5.07;1.60;;;5.90;99.90;;;;;;5027018;28;20069;-74
2022/11/24 07:02:23;;;;;;;6.53;1.80;;;5.90;99.90;;;;;;5029635;28;20068;-74
2022/11/24 07:04:48;;;;;;;4.47;1.50;;;5.90;99.90;;;;;;5026253;28;20049;-76
2022/11/24 07:07:29;;;;;;;7.57;1.67;;;6.00;99.90;;;;;;5027782;28;20029;-74
2022/11/24 07:09:58;;;;;;;6.38;1.40;;;6.00;99.90;;;;;;5029261;28;20026;-73
2022/11/24 07:12:23;;;;;;;6.78;1.92;;;6.00;99.90;;;;;;5032728;28;20033;-75
2022/11/24 07:14:49;;;;;;;4.93;1.73;;;6.00;99.90;;;;;;5027963;28;20032;-73
2022/11/24 07:17:14;;;;;;;8.80;1.40;;;6.10;99.90;;;;;;5028275;28;20025;-76
2022/11/24 07:19:43;;;;;;;8.05;1.50;;;6.10;99.90;;;;;;5028948;28;20025;-73
2022/11/24 07:22:15;;;;;;;7.50;1.77;;;6.10;99.90;;;;;;5025848;28;20022;-76
2022/11/24 07:24:49;;;;;;;5.68;2.25;;;6.10;99.90;;;;;;5034185;28;20044;-74
2022/11/24 07:27:18;;;;;;;8.35;2.20;;;6.20;99.90;;;;;;5028154;28;20128;-75
2022/11/24 07:29:46;;;;;;;6.57;1.85;;;6.20;99.90;;;;;;5030240;28;20036;-74
2022/11/24 07:32:12;;;;;;;8.05;2.20;;;6.20;99.90;;;;;;5027574;28;20029;-75
2022/11/24 07:34:41;;;;;;;9.00;2.00;;;6.20;99.90;;;;;;5025618;28;20048;-74
2022/11/24 07:37:09;;;;;;;9.60;2.22;;;6.20;99.90;;;;;;5026570;28;20082;-75
2022/11/24 07:39:35;;;;;;;12.52;1.98;;;6.30;99.90;;;;;;5009151;28;20034;-76
2022/11/24 07:42:02;;;;;;;8.20;2.40;;;6.30;99.90;;;;;;5026787;28;20030;-76
2022/11/24 07:44:28;;;;;;;7.20;2.33;;;6.30;99.90;;;;;;5026678;28;20037;-75
2022/11/24 07:46:54;;;;;;;5.20;2.03;;;6.40;99.90;;;;;;5011914;28;20041;-75
2022/11/24 07:49:19;;;;;;;8.80;2.28;;;6.40;99.90;;;;;;5025360;28;20039;-75
2022/11/24 07:51:45;;;;;;;17.38;2.38;;;6.40;99.90;;;;;;5022618;28;20411;-77
2022/11/24 07:54:10;;;;;;;12.90;2.47;;;6.40;99.90;;;;;;5020024;28;20030;-75
2022/11/24 07:56:36;;;;;;;11.93;2.17;;;6.50;99.90;;;;;;5022643;28;20646;-76
2022/11/24 07:59:02;;;;;;;12.43;2.80;;;6.50;99.90;;;;;;5023944;28;20026;-76
2022/11/24 08:01:28;;;;;;;12.52;2.80;;;6.50;99.90;;;;;;5026309;28;20037;-76
2022/11/24 08:03:53;;;;;;;13.98;2.80;;;6.60;99.90;;;;;;5025983;28;20029;-76
2022/11/24 08:06:20;;;;;;;12.43;2.28;;;6.60;99.90;;;;;;5026505;28;20033;-76
2022/11/24 08:08:46;;;;;;;20.60;3.95;;;6.70;99.90;;;;;;5020690;28;20118;-76
2022/11/24 08:11:16;;;;;;;14.15;4.18;;;6.70;99.90;;;;;;5028584;28;20108;-76
2022/11/24 08:13:43;;;;;;;18.75;4.80;;;6.70;99.90;;;;;;5026978;28;20498;-76
2022/11/24 08:16:11;;;;;;;19.27;3.40;;;6.80;99.90;;;;;;5025838;28;20104;-76
2022/11/24 08:18:38;;;;;;;13.45;3.20;;;6.80;99.90;;;;;;5022950;28;20116;-76
2022/11/24 08:21:04;;;;;;;17.10;3.53;;;6.80;99.90;;;;;;5020662;28;20037;-76
2022/11/24 08:23:31;;;;;;;17.40;2.60;;;6.80;99.90;;;;;;5016151;28;20026;-76
2022/11/24 08:26:01;;;;;;;11.77;2.83;;;6.80;99.90;;;;;;5020881;28;20107;-76
2022/11/24 08:28:27;;;;;;;9.35;2.42;;;6.80;99.90;;;;;;5016323;28;20397;-77
2022/11/24 08:31:04;;;;;;;12.00;2.08;;;6.80;99.90;;;;;;5027611;28;20121;-78
2022/11/24 08:33:30;;;;;;;10.55;1.83;;;6.90;99.90;;;;;;5030462;28;20369;-78
2022/11/24 08:35:56;;;;;;;12.57;2.40;;;6.90;99.90;;;;;;5025787;28;20480;-77
2022/11/24 08:38:21;;;;;;;9.10;2.20;;;6.90;99.90;;;;;;5029959;28;20053;-76
2022/11/24 08:40:47;;;;;;;13.70;1.70;;;6.90;99.90;;;;;;5036733;28;20049;-76
2022/11/24 08:43:12;;;;;;;10.80;2.08;;;6.90;99.90;;;;;;5035691;28;20398;-76
2022/11/24 08:45:38;;;;;;;9.95;2.05;;;6.90;99.90;;;;;;5032797;28;20032;-77
2022/11/24 08:48:04;;;;;;;6.80;1.65;;;6.90;99.90;;;;;;5038214;28;20486;-78
2022/11/24 08:50:29;;;;;;;4.07;1.15;;;6.90;99.90;;;;;;5036204;28;20037;-78
2022/11/24 08:52:55;;;;;;;6.95;2.22;;;6.90;99.90;;;;;;5039886;28;20029;-78
2022/11/24 08:55:21;;;;;;;7.05;1.30;;;6.90;99.90;;;;;;5035406;28;20036;-77
2022/11/24 08:57:46;;;;;;;4.80;1.70;;;6.90;99.90;;;;;;5027334;28;20437;-77
2022/11/24 09:00:13;;;;;;;6.75;1.98;;;6.90;99.90;;;;;;5026401;28;20033;-77
2022/11/24 09:02:38;;;;;;;7.40;1.95;;;6.90;99.90;;;;;;5028333;28;20057;-76
2022/11/24 09:05:04;;;;;;;9.32;3.35;;;6.90;99.90;;;;;;5035438;28;20021;-77
2022/11/24 09:07:30;;;;;;;11.68;3.00;;;7.00;99.90;;;;;;5040242;28;20036;-77
2022/11/24 09:09:55;;;;;;;5.32;1.90;;;7.00;99.90;;;;;;5028572;28;20057;-77
2022/11/24 09:12:21;;;;;;;11.65;1.90;;;7.00;99.90;;;;;;5033124;28;20041;-77
2022/11/24 09:14:47;;;;;;;3.63;1.25;;;7.00;99.90;;;;;;5032416;28;20022;-80
2022/11/24 09:17:15;;;;;;;6.68;1.48;;;7.00;99.90;;;;;;5030263;28;20025;-79
2022/11/24 09:19:40;;;;;;;4.90;1.00;;;7.10;99.90;;;;;;5038754;28;20025;-77
2022/11/24 09:22:09;;;;;;;5.47;1.40;;;7.10;99.90;;;;;;5042069;28;20057;-80
2022/11/24 09:24:35;;;;;;;3.00;0.73;;;7.00;99.90;;;;;;5039152;28;20375;-79
2022/11/24 09:27:00;;;;;;;5.00;0.80;;;7.10;99.90;;;;;;5034066;28;20040;-77
2022/11/24 09:29:26;;;;;;;5.28;0.90;;;7.00;99.90;;;;;;5036382;28;20033;-79
2022/11/24 09:31:52;;;;;;;5.35;1.00;;;7.00;99.90;;;;;;5040757;28;20025;-77
2022/11/24 09:34:17;;;;;;;5.13;1.38;;;7.00;99.90;;;;;;5034144;28;20033;-78
2022/11/24 09:36:43;;;;;;;13.00;1.48;;;7.10;99.90;;;;;;5021017;28;20032;-76
2022/11/24 09:39:10;;;;;;;2.28;0.90;;;7.20;99.90;;;;;;5022625;28;20387;-78
2022/11/24 09:42:02;;;;;;;7.43;0.85;;;7.20;99.90;;;;;;5021206;28;20042;-78
2022/11/24 09:44:50;;;;;;;4.30;0.80;;;7.30;99.90;;;;;;5020204;28;20026;-80
2022/11/24 09:47:41;;;;;;;3.85;1.13;;;7.30;99.90;;;;;;5021027;28;20041;-79
2022/11/24 09:50:21;;;;;;;4.07;0.95;;;7.40;99.90;;;;;;5023261;28;20042;-79
2022/11/24 09:52:58;;;;;;;2.97;1.00;;;7.50;99.90;;;;;;5032307;28;20087;-78
2022/11/24 09:55:42;;;;;;;3.50;1.08;;;7.50;99.90;;;;;;5038401;28;20025;-78
2022/11/24 09:58:16;;;;;;;1.60;0.68;;;7.50;99.90;;;;;;5031688;28;20045;-76
2022/11/24 10:00:42;;;;;;;0.80;0.40;;;7.50;99.90;;;;;;5027238;28;20052;-78
2022/11/24 10:03:42;;;;;;;4.80;0.73;;;7.60;99.90;;;;;;5040879;28;20026;-76
2022/11/24 10:06:57;;;;;;;1.73;0.40;;;7.80;99.90;;;;;;5017652;28;20656;-77
2022/11/24 10:09:49;;;;;;;1.65;0.43;;;7.80;99.90;;;;;;5020807;28;20072;-77
2022/11/24 10:12:29;;;;;;;2.42;0.93;;;7.90;99.90;;;;;;5031887;28;20033;-76
2022/11/24 10:15:21;;;;;;;1.13;0.40;;;8.00;99.90;;;;;;5031109;28;20026;-77
2022/11/24 10:18:11;;;;;;;1.02;0.55;;;8.20;99.90;;;;;;5032806;28;20025;-78
2022/11/24 10:20:55;;;;;;;0.85;0.38;;;8.40;99.90;;;;;;5033448;28;20044;-76
2022/11/24 10:23:46;;;;;;;1.95;0.40;;;8.50;99.90;;;;;;5038350;28;20022;-78
2022/11/24 10:26:36;;;;;;;1.95;0.47;;;8.70;99.90;;;;;;5042759;28;20026;-78
2022/11/24 10:29:33;;;;;;;2.15;0.57;;;8.70;99.90;;;;;;5032003;28;20027;-77
2022/11/24 10:32:02;;;;;;;1.70;0.60;;;8.70;99.90;;;;;;5031261;28;20171;-78
2022/11/24 10:34:38;;;;;;;2.25;0.60;;;8.70;99.90;;;;;;5038679;28;20021;-78
2022/11/24 10:37:17;;;;;;;0.82;0.32;;;8.70;99.90;;;;;;5037350;28;20035;-78
2022/11/24 10:40:28;;;;;;;3.72;0.40;;;8.80;99.90;;;;;;5032234;28;20027;-79
2022/11/24 10:42:53;;;;;;;1.45;0.70;;;8.80;99.90;;;;;;5038129;28;20041;-79
2022/11/24 10:45:21;;;;;;;1.83;0.60;;;8.70;99.90;;;;;;5039222;28;20143;-80
2022/11/24 10:47:48;;;;;;;0.90;0.25;;;8.80;99.90;;;;;;5036845;28;20021;-78
2022/11/24 10:50:23;;;;;;;2.40;0.60;;;8.70;99.90;;;;;;5037156;28;20624;-78
2022/11/24 10:53:17;;;;;;;1.45;0.55;;;8.80;99.90;;;;;;5036686;28;20022;-78
2022/11/24 10:55:59;;;;;;;1.48;0.50;;;8.90;99.90;;;;;;5026211;28;20033;-81
2022/11/24 10:58:28;;;;;;;1.38;0.70;;;8.90;99.90;;;;;;5017305;28;20045;-80
2022/11/24 11:00:57;;;;;;;3.33;0.77;;;8.90;99.90;;;;;;5024679;28;20006;-78
2022/11/24 11:03:32;;;;;;;2.38;0.50;;;8.90;99.90;;;;;;5024387;28;20030;-78
2022/11/24 11:06:04;;;;;;;2.10;0.43;;;9.00;99.90;;;;;;5040120;28;20079;-79
2022/11/24 11:08:31;;;;;;;4.57;0.82;;;9.00;99.90;;;;;;5030844;28;20022;-78
2022/11/24 11:11:26;;;;;;;3.47;0.65;;;9.00;99.90;;;;;;5031366;28;20045;-78
2022/11/24 11:14:04;;;;;;;2.80;0.73;;;9.10;99.90;;;;;;5034558;28;20029;-79
2022/11/24 11:17:02;;;;;;;5.10;1.52;;;9.10;99.90;;;;;;5030939;28;20049;-77
2022/11/24 11:19:40;;;;;;;3.05;1.02;;;9.20;99.90;;;;;;5007780;28;20030;-79
2022/11/24 11:22:14;;;;;;;5.55;1.00;;;9.20;99.90;;;;;;5027071;28;20021;-79
2022/11/24 11:24:42;;;;;;;3.80;0.80;;;9.30;99.90;;;;;;5040539;28;20029;-78
2022/11/24 11:27:21;;;;;;;3.47;1.10;;;9.30;99.90;;;;;;5026472;28;20052;-78
2022/11/24 11:29:47;;;;;;;2.47;1.27;;;9.30;99.90;;;;;;5021046;28;20025;-78
2022/11/24 11:32:25;;;;;;;4.40;1.00;;;9.40;99.90;;;;;;5022464;28;20013;-79
2022/11/24 11:34:53;;;;;;;2.97;1.17;;;9.40;99.90;;;;;;5027421;28;20014;-78
2022/11/24 11:37:20;;;;;;;4.47;0.70;;;9.40;99.90;;;;;;5027962;28;20097;-79
2022/11/24 11:39:55;;;;;;;3.83;1.10;;;9.50;99.90;;;;;;5034399;28;20025;-77
2022/11/24 11:42:33;;;;;;;5.65;1.27;;;9.60;99.90;;;;;;5025024;28;20025;-78
2022/11/24 11:45:16;;;;;;;5.63;1.08;;;9.70;99.90;;;;;;5028226;28;20036;-78
2022/11/24 11:47:51;;;;;;;2.90;0.85;;;9.80;99.90;;;;;;5031623;28;20026;-79
2022/11/24 11:50:24;;;;;;;4.75;1.30;;;9.90;99.90;;;;;;5030831;28;20032;-78
2022/11/24 11:53:08;;;;;;;7.35;1.40;;;9.90;99.90;;;;;;5027690;28;20104;-79
2022/11/24 11:56:12;;;;;;;;;;;10.00;99.90;;;;;;5039357;28;20023;-78
2022/11/24 11:59:06;;;;;;;4.32;0.80;;;10.10;99.90;;;;;;5009644;28;20032;-78
2022/11/24 12:02:03;;;;;;;5.53;1.23;;;10.20;99.90;;;;;;4989462;28;20038;-76
2022/11/24 12:04:41;;;;;;;5.50;1.20;;;10.30;99.90;;;;;;4950242;28;20044;-79
2022/11/24 12:07:25;;;;;;;4.57;1.17;;;10.30;99.90;;;;;;5026821;28;20053;-78
2022/11/24 12:10:12;;;;;;;3.28;1.08;;;10.40;99.90;;;;;;5031602;28;20396;-79
2022/11/24 12:12:46;;;;;;;8.25;0.95;;;10.40;99.90;;;;;;5035510;28;20040;-78
2022/11/24 12:15:48;;;;;;;7.10;1.23;;;10.40;99.90;;;;;;5039094;28;20518;-79
2022/11/24 12:18:19;;;;;;;3.35;0.93;;;10.40;99.90;;;;;;5027556;28;20060;-78
2022/11/24 12:21:14;;;;;;;3.00;0.80;;;10.40;99.90;;;;;;5039582;28;20033;-79
2022/11/24 12:23:58;;;;;;;6.10;1.15;;;10.40;99.90;;;;;;5037068;28;20040;-77
2022/11/24 12:26:44;;;;;;;7.85;1.67;;;10.30;99.90;;;;;;5038244;28;20039;-80
2022/11/24 12:29:40;;;;;;;4.47;1.15;;;10.30;99.90;;;;;;5036438;28;20033;-80
2022/11/24 12:32:35;;;;;;;6.03;1.38;;;10.30;99.90;;;;;;5035868;28;20457;-79
2022/11/24 12:35:26;;;;;;;3.65;1.40;;;10.30;99.90;;;;;;5032321;28;20054;-77
2022/11/24 12:37:52;;;;;;;4.88;1.25;;;10.30;99.90;;;;;;5029758;28;20049;-78
2022/11/24 12:40:26;;;;;;;6.35;1.13;;;10.30;99.90;;;;;;5035368;28;20475;-79
2022/11/24 12:43:16;;;;;;;5.45;1.23;;;10.30;99.90;;;;;;5034662;28;20088;-76
2022/11/24 12:45:48;;;;;;;4.47;1.20;;;10.30;99.90;;;;;;5036505;28;20044;-81
2022/11/24 12:48:26;;;;;;;5.82;1.52;;;10.40;99.90;;;;;;5037156;28;20140;-79
2022/11/24 12:50:54;;;;;;;6.15;1.17;;;10.40;99.90;;;;;;5039303;28;20037;-79
2022/11/24 12:53:26;;;;;;;6.93;1.30;;;10.40;99.90;;;;;;5037767;28;20127;-77
2022/11/24 12:55:53;;;;;;;5.30;1.25;;;10.50;99.90;;;;;;5033720;28;20029;-79
2022/11/24 12:58:24;;;;;;;4.47;1.13;;;10.50;99.90;;;;;;5032733;28;20045;-79
2022/11/24 13:00:55;;;;;;;4.03;1.27;;;10.50;99.90;;;;;;5025354;28;20081;-79
2022/11/24 13:03:40;;;;;;;5.30;1.20;;;10.50;99.90;;;;;;5033655;28;20112;-79
2022/11/24 13:06:27;;;;;;;;;;;10.50;99.90;;;;;;5037065;28;20030;-79
2022/11/24 13:08:54;;;;;;;6.60;1.10;;;10.50;99.90;;;;;;5031660;28;19971;-79
2022/11/24 13:11:22;;;;;;;5.82;1.10;;;10.50;99.90;;;;;;5034543;28;20030;-78
2022/11/24 13:14:27;;;;;;;5.38;1.10;;;10.50;99.90;;;;;;5032546;28;20069;-77
2022/11/24 13:17:01;;;;;;;4.18;1.42;;;10.50;99.90;;;;;;5033956;28;20075;-76
2022/11/24 13:19:36;;;;;;;6.35;1.42;;;10.50;99.90;;;;;;5031141;28;20029;-80
2022/11/24 13:22:08;;;;;;;6.88;1.33;;;10.50;99.90;;;;;;5029415;28;20530;-79
2022/11/24 13:24:36;;;;;;;10.48;1.58;;;10.50;99.90;;;;;;5032156;28;20107;-80